Time;durP1;ratioP1;P1;durP2;ratioP2;P2;SDS_P1;SDS_P2;PMS_P1;PMS_P2;Temp;Humidity;BMP_temperature;BMP_pressure;BME280_temperature;BME280_humidity;BME280_pressure;Samples;Min_cycle;Max_cycle;Signal;HPM_P1;HPM_P2
2023/06/02 00:02:22;;;;;;;6.07;1.20;;;11.40;99.90;;;;;;4911203;29;20125;-37
2023/06/02 00:04:49;;;;;;;4.22;0.88;;;11.40;99.90;;;;;;4911728;29;20103;-37
2023/06/02 00:07:15;;;;;;;6.70;0.98;;;11.40;99.90;;;;;;4913626;29;20043;-37
2023/06/02 00:09:42;;;;;;;6.22;1.00;;;11.40;99.90;;;;;;4890570;29;20407;-37
2023/06/02 00:12:10;;;;;;;7.35;1.08;;;11.30;99.90;;;;;;4912247;29;20044;-37
2023/06/02 00:14:38;;;;;;;6.25;0.77;;;11.30;99.90;;;;;;4908370;29;20060;-36
2023/06/02 00:17:04;;;;;;;4.78;0.88;;;11.20;99.90;;;;;;4912585;29;20044;-37
2023/06/02 00:19:30;;;;;;;7.28;1.45;;;11.30;99.90;;;;;;4910151;29;20047;-37
2023/06/02 00:22:05;;;;;;;11.98;1.48;;;11.20;99.90;;;;;;4912861;29;20062;-37
2023/06/02 00:24:31;;;;;;;4.70;1.05;;;11.20;99.90;;;;;;4912171;29;20082;-37
2023/06/02 00:26:57;;;;;;;6.65;0.88;;;11.20;99.90;;;;;;4914208;29;20490;-36
2023/06/02 00:29:23;;;;;;;7.00;0.93;;;11.20;99.90;;;;;;4908644;29;20055;-36
2023/06/02 00:31:48;;;;;;;5.72;0.90;;;11.20;99.90;;;;;;4914957;29;20498;-37
2023/06/02 00:34:14;;;;;;;9.68;1.40;;;11.20;99.90;;;;;;4918634;29;20056;-37
2023/06/02 00:36:40;;;;;;;10.25;1.02;;;11.20;99.90;;;;;;4906315;29;20401;-37
2023/06/02 00:39:07;;;;;;;8.18;1.00;;;11.20;99.90;;;;;;4914582;29;20079;-37
2023/06/02 00:41:33;;;;;;;10.43;3.00;;;11.20;99.90;;;;;;4908645;29;20044;-36
2023/06/02 00:43:59;;;;;;;9.45;1.02;;;11.20;99.90;;;;;;4911295;29;20063;-36
2023/06/02 00:46:24;;;;;;;5.13;1.10;;;11.30;99.90;;;;;;4914854;29;20060;-36
2023/06/02 00:48:50;;;;;;;10.20;1.05;;;11.30;99.90;;;;;;4918509;29;20111;-37
2023/06/02 00:51:20;;;;;;;7.88;1.30;;;11.30;99.90;;;;;;4911695;29;20052;-37
2023/06/02 00:53:46;;;;;;;9.77;1.13;;;11.20;99.90;;;;;;4919018;29;20475;-36
2023/06/02 00:56:15;;;;;;;15.32;1.58;;;11.20;99.90;;;;;;4909757;29;20628;-37
2023/06/02 00:58:45;;;;;;;7.68;1.25;;;11.30;99.90;;;;;;4909823;29;20060;-36
2023/06/02 01:01:18;;;;;;;6.55;1.10;;;11.20;99.90;;;;;;4909364;29;20577;-37
2023/06/02 01:03:46;;;;;;;6.28;1.50;;;11.30;99.90;;;;;;4906807;29;20064;-37
2023/06/02 01:06:13;;;;;;;6.90;1.65;;;11.20;99.90;;;;;;4913118;29;20081;-37
2023/06/02 01:08:40;;;;;;;3.70;0.82;;;11.20;99.90;;;;;;4887605;29;20569;-36
2023/06/02 01:11:07;;;;;;;8.30;0.77;;;11.20;99.90;;;;;;4910874;29;20060;-37
2023/06/02 01:13:35;;;;;;;8.77;1.10;;;11.20;99.90;;;;;;4913293;29;20062;-36
2023/06/02 01:16:01;;;;;;;6.72;1.00;;;11.20;99.90;;;;;;4910900;29;20048;-37
2023/06/02 01:18:29;;;;;;;9.85;1.33;;;11.20;99.90;;;;;;4915232;29;20054;-36
2023/06/02 01:20:58;;;;;;;13.07;3.10;;;11.20;99.90;;;;;;4909481;29;20056;-36
2023/06/02 01:23:33;;;;;;;6.00;1.08;;;11.10;99.90;;;;;;4908065;29;20222;-36
2023/06/02 01:25:59;;;;;;;3.95;1.00;;;11.10;99.90;;;;;;4914291;29;20055;-37
2023/06/02 01:28:26;;;;;;;7.50;1.10;;;11.10;99.90;;;;;;4916275;29;20060;-37
2023/06/02 01:30:55;;;;;;;6.22;0.75;;;11.10;99.90;;;;;;4907396;29;20060;-36
2023/06/02 01:33:35;;;;;;;9.85;1.50;;;11.10;99.90;;;;;;4917768;29;20094;-37
2023/06/02 01:36:01;;;;;;;4.20;0.77;;;11.10;99.90;;;;;;4908986;29;20056;-37
2023/06/02 01:38:30;;;;;;;6.13;0.90;;;11.10;99.90;;;;;;4912140;29;20114;-36
2023/06/02 01:41:02;;;;;;;7.85;1.10;;;11.10;99.90;;;;;;4912154;29;20055;-36
2023/06/02 01:43:29;;;;;;;11.45;2.17;;;11.10;99.90;;;;;;4906212;29;20060;-36
2023/06/02 01:45:56;;;;;;;7.22;1.40;;;11.10;99.90;;;;;;4909423;29;20564;-36
2023/06/02 01:48:22;;;;;;;7.00;0.90;;;11.10;99.90;;;;;;4912620;29;20055;-36
2023/06/02 01:50:47;;;;;;;11.27;1.42;;;11.10;99.90;;;;;;4912841;29;20532;-37
2023/06/02 01:53:13;;;;;;;4.63;1.55;;;11.10;99.90;;;;;;4908102;29;20056;-37
2023/06/02 01:55:39;;;;;;;13.25;1.10;;;11.00;99.90;;;;;;4892402;29;20060;-35
2023/06/02 01:58:04;;;;;;;8.15;1.10;;;11.00;99.90;;;;;;4911739;29;20058;-37
2023/06/02 02:00:30;;;;;;;6.65;0.77;;;11.10;99.90;;;;;;4909482;29;20067;-37
2023/06/02 02:02:57;;;;;;;10.75;1.40;;;11.10;99.90;;;;;;4906627;29;20581;-36
2023/06/02 02:05:23;;;;;;;9.27;0.90;;;11.10;99.90;;;;;;4913835;29;20055;-37
2023/06/02 02:07:50;;;;;;;14.73;1.70;;;11.10;99.90;;;;;;4908175;29;20147;-36
2023/06/02 02:10:16;;;;;;;10.75;1.88;;;11.10;99.90;;;;;;4916618;29;20071;-36
2023/06/02 02:12:42;;;;;;;8.65;1.20;;;11.00;99.90;;;;;;4909611;29;20059;-36
2023/06/02 02:15:09;;;;;;;6.10;1.02;;;11.10;99.90;;;;;;4910279;29;20060;-36
2023/06/02 02:17:36;;;;;;;4.90;0.80;;;11.00;99.90;;;;;;4908557;29;20495;-37
2023/06/02 02:20:05;;;;;;;7.00;1.27;;;11.00;99.90;;;;;;4907909;29;20092;-36
2023/06/02 02:22:32;;;;;;;5.97;0.90;;;11.10;99.90;;;;;;4916491;29;20060;-37
2023/06/02 02:24:58;;;;;;;4.40;1.45;;;11.10;99.90;;;;;;4914231;29;20164;-36
2023/06/02 02:27:24;;;;;;;6.90;1.27;;;11.10;99.90;;;;;;4916189;29;20044;-37
2023/06/02 02:29:50;;;;;;;7.50;1.30;;;11.10;99.90;;;;;;4908392;29;20147;-36
2023/06/02 02:32:16;;;;;;;6.85;1.40;;;11.00;99.90;;;;;;4910095;29;21272;-37
2023/06/02 02:34:46;;;;;;;5.95;2.05;;;11.00;99.90;;;;;;4910033;29;20084;-37
2023/06/02 02:37:12;;;;;;;9.05;2.65;;;11.00;99.90;;;;;;4913257;29;20075;-36
2023/06/02 02:39:38;;;;;;;6.32;1.50;;;10.90;99.90;;;;;;4910334;29;20056;-36
2023/06/02 02:42:04;;;;;;;7.18;0.90;;;10.90;99.90;;;;;;4915013;29;20087;-36
2023/06/02 02:44:30;;;;;;;6.82;0.80;;;10.90;99.90;;;;;;4916805;29;20096;-37
2023/06/02 02:46:58;;;;;;;8.10;0.95;;;10.90;99.90;;;;;;4913988;29;20040;-36
2023/06/02 02:49:24;;;;;;;5.60;0.68;;;10.90;99.90;;;;;;4914866;29;20060;-37
2023/06/02 02:51:50;;;;;;;7.40;1.38;;;10.90;99.90;;;;;;4910543;29;20074;-36
2023/06/02 02:54:16;;;;;;;4.53;0.77;;;10.90;99.90;;;;;;4924229;29;20059;-37
2023/06/02 02:56:41;;;;;;;4.50;1.00;;;10.90;99.90;;;;;;4913076;29;20044;-37
2023/06/02 02:59:07;;;;;;;6.93;0.73;;;11.00;99.90;;;;;;4909126;29;20461;-37
2023/06/02 03:01:32;;;;;;;7.13;1.50;;;11.00;99.90;;;;;;4911905;29;21958;-36
2023/06/02 03:03:58;;;;;;;7.60;1.42;;;11.00;99.90;;;;;;4912945;29;20103;-37
2023/06/02 03:06:31;;;;;;;7.68;0.85;;;11.00;99.90;;;;;;4911156;29;20167;-37
2023/06/02 03:08:57;;;;;;;;;;;11.00;99.90;;;;;;4907834;29;20103;-36
2023/06/02 03:11:23;;;;;;;9.65;1.35;;;11.00;99.90;;;;;;4920569;29;19918;-37
2023/06/02 03:13:49;;;;;;;6.68;0.80;;;10.90;99.90;;;;;;4913246;29;21584;-37
2023/06/02 03:16:16;;;;;;;8.15;1.10;;;10.90;99.90;;;;;;4910490;29;20048;-37
2023/06/02 03:18:42;;;;;;;8.38;0.95;;;10.90;99.90;;;;;;4911981;29;20071;-37
2023/06/02 03:21:07;;;;;;;5.28;0.90;;;10.90;99.90;;;;;;4910972;29;20064;-37
2023/06/02 03:23:33;;;;;;;5.78;0.90;;;10.90;99.90;;;;;;4906402;29;20152;-37
2023/06/02 03:26:01;;;;;;;7.72;0.80;;;10.90;99.90;;;;;;4908739;29;20471;-36
2023/06/02 03:28:26;;;;;;;5.07;0.77;;;10.90;99.90;;;;;;4902929;29;20063;-37
2023/06/02 03:30:52;;;;;;;8.38;0.88;;;10.80;99.90;;;;;;4905986;29;20059;-36
2023/06/02 03:33:18;;;;;;;7.75;0.82;;;10.80;99.90;;;;;;4908420;29;20926;-37
2023/06/02 03:35:43;;;;;;;9.77;1.02;;;10.80;99.90;;;;;;4905949;29;20052;-37
2023/06/02 03:38:09;;;;;;;7.80;1.23;;;10.80;99.90;;;;;;4912066;29;20059;-36
2023/06/02 03:40:35;;;;;;;8.55;1.00;;;10.80;99.90;;;;;;4914153;29;20055;-37
2023/06/02 03:43:00;;;;;;;6.95;1.00;;;10.80;99.90;;;;;;4907070;29;20059;-36
2023/06/02 03:45:26;;;;;;;4.07;1.10;;;10.80;99.90;;;;;;4908184;29;20127;-37
2023/06/02 03:47:51;;;;;;;5.28;0.80;;;10.80;99.90;;;;;;4916098;29;20451;-36
2023/06/02 03:50:17;;;;;;;9.45;1.52;;;10.90;99.90;;;;;;4911035;29;20056;-36
2023/06/02 03:52:43;;;;;;;7.65;1.10;;;10.90;99.90;;;;;;4898752;29;20139;-37
2023/06/02 03:55:08;;;;;;;6.00;1.83;;;10.90;99.90;;;;;;4910406;29;20112;-36
2023/06/02 03:57:34;;;;;;;6.47;1.30;;;10.90;99.90;;;;;;4910396;29;20493;-37
2023/06/02 04:00:00;;;;;;;4.72;1.02;;;10.90;99.90;;;;;;4912757;29;20051;-36
2023/06/02 04:02:25;;;;;;;8.13;1.45;;;10.80;99.90;;;;;;4910200;29;20087;-37
2023/06/02 04:04:51;;;;;;;5.82;1.13;;;10.90;99.90;;;;;;4910686;29;20108;-37
2023/06/02 04:07:17;;;;;;;5.10;0.88;;;10.90;99.90;;;;;;4909610;29;20064;-37
2023/06/02 04:09:42;;;;;;;4.07;0.88;;;10.90;99.90;;;;;;4915492;29;20056;-37
2023/06/02 04:12:08;;;;;;;8.43;1.30;;;10.90;99.90;;;;;;4912120;29;20135;-36
2023/06/02 04:14:34;;;;;;;10.95;1.23;;;10.90;99.90;;;;;;4912178;29;20048;-36
2023/06/02 04:17:00;;;;;;;9.07;1.20;;;10.90;99.90;;;;;;4907020;29;20044;-36
2023/06/02 04:19:25;;;;;;;12.13;1.40;;;10.90;99.90;;;;;;4909832;29;20078;-37
2023/06/02 04:21:52;;;;;;;12.45;1.40;;;10.90;99.90;;;;;;4909260;29;20074;-37
2023/06/02 04:24:18;;;;;;;7.03;1.48;;;11.00;99.90;;;;;;4908331;29;20175;-36
2023/06/02 04:26:46;;;;;;;7.47;0.88;;;11.00;99.90;;;;;;4911229;29;20139;-37
2023/06/02 04:29:11;;;;;;;10.70;1.10;;;11.00;99.90;;;;;;4907324;29;20087;-36
2023/06/02 04:31:45;;;;;;;6.32;1.00;;;11.00;99.90;;;;;;4909536;29;20085;-37
2023/06/02 04:34:12;;;;;;;6.82;1.05;;;11.00;99.90;;;;;;4908865;29;20055;-36
2023/06/02 04:36:38;;;;;;;9.13;2.03;;;11.10;99.90;;;;;;4907553;29;20131;-37
2023/06/02 04:39:08;;;;;;;9.40;1.13;;;11.00;99.90;;;;;;4909620;29;20051;-37
2023/06/02 04:41:36;;;;;;;9.50;1.58;;;11.10;99.90;;;;;;4913223;29;20424;-37
2023/06/02 04:44:03;;;;;;;7.65;1.00;;;11.10;99.90;;;;;;4908370;29;20108;-36
2023/06/02 04:46:29;;;;;;;8.73;1.38;;;11.10;99.90;;;;;;4912318;29;20147;-37
2023/06/02 04:48:55;;;;;;;6.00;1.00;;;11.10;99.90;;;;;;4913132;29;20139;-37
2023/06/02 04:51:27;;;;;;;7.30;1.42;;;11.10;99.90;;;;;;4907670;29;20144;-37
2023/06/02 04:53:53;;;;;;;7.50;1.20;;;11.10;99.90;;;;;;4905691;29;20098;-37
2023/06/02 04:56:19;;;;;;;3.17;0.80;;;11.20;99.90;;;;;;4907874;29;20079;-37
2023/06/02 04:58:45;;;;;;;3.70;0.80;;;11.20;99.90;;;;;;4905828;29;20410;-36
2023/06/02 05:01:10;;;;;;;7.03;1.02;;;11.20;99.90;;;;;;4908030;29;20088;-36
2023/06/02 05:03:36;;;;;;;8.82;1.27;;;11.20;99.90;;;;;;4896003;29;20067;-37
2023/06/02 05:06:02;;;;;;;8.38;1.13;;;11.20;99.90;;;;;;4904997;29;20498;-36
2023/06/02 05:08:28;;;;;;;9.13;1.48;;;11.30;99.90;;;;;;4909329;29;20062;-36
2023/06/02 05:10:53;;;;;;;11.13;1.23;;;11.30;99.90;;;;;;4907637;29;20060;-36
2023/06/02 05:13:19;;;;;;;8.30;1.35;;;11.30;99.90;;;;;;4908238;29;20044;-36
2023/06/02 05:15:45;;;;;;;8.20;1.92;;;11.30;99.90;;;;;;4909865;29;20051;-36
2023/06/02 05:18:14;;;;;;;9.73;1.77;;;11.30;99.90;;;;;;4910599;29;20119;-36
2023/06/02 05:20:41;;;;;;;13.38;1.70;;;11.30;99.90;;;;;;4906766;29;20490;-36
2023/06/02 05:23:07;;;;;;;7.78;0.93;;;11.40;99.90;;;;;;4905996;29;20490;-36
2023/06/02 05:25:34;;;;;;;11.05;1.42;;;11.40;99.90;;;;;;4908135;29;20060;-37
2023/06/02 05:28:00;;;;;;;4.55;0.93;;;11.40;99.90;;;;;;4907042;29;20048;-36
2023/06/02 05:30:26;;;;;;;13.95;1.80;;;11.50;99.90;;;;;;4905291;29;20044;-36
2023/06/02 05:32:51;;;;;;;11.48;1.33;;;11.50;99.90;;;;;;4905268;29;20086;-36
2023/06/02 05:35:17;;;;;;;8.48;1.73;;;11.50;99.90;;;;;;4906047;29;20124;-36
2023/06/02 05:37:43;;;;;;;9.27;1.00;;;11.50;99.90;;;;;;4908637;29;20320;-37
2023/06/02 05:40:10;;;;;;;13.00;1.35;;;11.50;99.90;;;;;;4902699;29;20610;-36
2023/06/02 05:42:36;;;;;;;11.38;1.55;;;11.60;99.90;;;;;;4912911;29;20060;-36
2023/06/02 05:45:05;;;;;;;9.10;1.30;;;11.60;99.90;;;;;;4903435;29;20048;-36
2023/06/02 05:47:34;;;;;;;9.88;1.50;;;11.60;99.90;;;;;;4904290;29;22085;-36
2023/06/02 05:50:00;;;;;;;10.85;1.60;;;11.60;99.90;;;;;;4900231;29;20055;-36
2023/06/02 05:52:25;;;;;;;10.60;1.38;;;11.60;99.90;;;;;;4900005;29;20036;-36
2023/06/02 05:54:51;;;;;;;11.43;1.92;;;11.70;99.90;;;;;;4901763;29;20755;-37
2023/06/02 05:57:17;;;;;;;4.25;1.00;;;11.70;99.90;;;;;;4900952;29;20471;-36
2023/06/02 05:59:43;;;;;;;15.20;1.45;;;11.70;99.90;;;;;;4903818;29;20048;-36
2023/06/02 06:02:09;;;;;;;10.07;1.67;;;11.80;99.90;;;;;;4899292;29;20059;-37
2023/06/02 06:04:35;;;;;;;9.68;1.00;;;11.80;99.90;;;;;;4904165;29;20057;-37
2023/06/02 06:07:02;;;;;;;8.60;1.80;;;11.80;99.90;;;;;;4899893;29;20682;-37
2023/06/02 06:09:28;;;;;;;10.10;1.27;;;11.90;99.90;;;;;;4901806;29;20052;-37
2023/06/02 06:11:54;;;;;;;10.15;1.60;;;12.00;99.90;;;;;;4903872;29;20059;-37
2023/06/02 06:14:19;;;;;;;12.65;1.98;;;12.00;99.90;;;;;;4916347;29;20066;-36
2023/06/02 06:16:45;;;;;;;10.82;1.48;;;12.00;99.90;;;;;;4924414;29;20071;-36
2023/06/02 06:19:11;;;;;;;10.38;1.95;;;12.00;99.90;;;;;;4919900;29;20058;-37
2023/06/02 06:21:37;;;;;;;6.22;1.60;;;12.00;99.90;;;;;;4922968;29;20155;-36
2023/06/02 06:24:04;;;;;;;7.47;1.17;;;12.10;99.90;;;;;;4918508;29;20400;-37
2023/06/02 06:26:30;;;;;;;9.65;1.25;;;12.20;99.90;;;;;;4924348;29;20051;-36
2023/06/02 06:28:56;;;;;;;8.70;1.38;;;12.20;99.90;;;;;;4926445;29;20571;-37
2023/06/02 06:31:21;;;;;;;10.15;1.27;;;12.30;99.90;;;;;;4927534;29;20055;-36
2023/06/02 06:33:47;;;;;;;12.57;2.08;;;12.30;99.90;;;;;;4921226;29;20056;-37
2023/06/02 06:36:13;;;;;;;6.70;1.40;;;12.40;99.90;;;;;;4914029;29;20111;-37
2023/06/02 06:38:40;;;;;;;12.18;2.22;;;12.50;99.90;;;;;;4915780;29;20139;-37
2023/06/02 06:41:06;;;;;;;8.02;1.25;;;12.60;99.90;;;;;;4916670;29;20052;-37
2023/06/02 06:43:32;;;;;;;11.40;2.47;;;12.60;99.90;;;;;;4909359;29;20406;-36
2023/06/02 06:45:59;;;;;;;10.70;2.42;;;12.70;99.90;;;;;;4914720;29;20040;-37
2023/06/02 06:48:25;;;;;;;8.63;2.10;;;12.80;99.90;;;;;;4903793;29;20095;-36
2023/06/02 06:50:50;;;;;;;9.23;1.13;;;12.80;99.90;;;;;;4922403;29;20498;-36
2023/06/02 06:53:17;;;;;;;7.60;1.20;;;12.90;99.90;;;;;;4918393;29;20409;-35
2023/06/02 06:55:44;;;;;;;10.20;1.40;;;13.00;99.90;;;;;;4925065;29;20052;-36
2023/06/02 06:58:10;;;;;;;13.13;2.90;;;13.00;99.90;;;;;;4913834;29;20052;-36
2023/06/02 07:00:35;;;;;;;5.50;1.80;;;13.10;99.90;;;;;;4919443;29;20525;-33
2023/06/02 07:03:01;;;;;;;11.88;1.95;;;13.20;99.90;;;;;;4910518;29;20059;-33
2023/06/02 07:05:28;;;;;;;7.43;1.25;;;13.20;99.90;;;;;;4913540;29;20127;-33
2023/06/02 07:07:54;;;;;;;8.40;1.30;;;13.20;99.90;;;;;;4914748;29;20052;-33
2023/06/02 07:10:20;;;;;;;19.80;3.53;;;13.20;99.90;;;;;;4914072;29;20066;-33
2023/06/02 07:12:46;;;;;;;12.43;1.80;;;13.30;99.90;;;;;;4920985;29;20581;-33
2023/06/02 07:15:12;;;;;;;9.00;1.55;;;13.30;99.90;;;;;;4912635;29;20098;-33
2023/06/02 07:17:41;;;;;;;13.25;2.00;;;13.50;99.90;;;;;;4913049;29;20052;-33
2023/06/02 07:20:11;;;;;;;7.03;1.40;;;13.40;99.90;;;;;;4916676;29;20047;-33
2023/06/02 07:22:37;;;;;;;6.60;1.48;;;13.50;99.90;;;;;;4916422;29;20499;-33
2023/06/02 07:25:06;;;;;;;8.85;1.67;;;13.60;99.90;;;;;;4912789;29;20135;-33
2023/06/02 07:27:33;;;;;;;11.30;2.30;;;13.60;99.90;;;;;;4907004;29;20135;-33
2023/06/02 07:29:59;;;;;;;8.90;1.48;;;13.60;99.90;;;;;;4915780;29;20058;-33
2023/06/02 07:32:25;;;;;;;9.20;2.85;;;13.60;99.90;;;;;;4913417;29;20052;-33
2023/06/02 07:34:51;;;;;;;10.27;2.25;;;13.70;99.90;;;;;;4916123;29;20048;-33
2023/06/02 07:37:17;;;;;;;8.88;2.20;;;13.70;99.90;;;;;;4913918;29;20058;-33
2023/06/02 07:39:42;;;;;;;13.52;1.60;;;13.70;99.90;;;;;;4916373;29;20445;-33
2023/06/02 07:42:08;;;;;;;18.30;3.05;;;13.80;99.90;;;;;;4917693;29;20506;-33
2023/06/02 07:44:34;;;;;;;7.38;2.53;;;13.80;99.90;;;;;;4916261;29;20570;-33
2023/06/02 07:47:00;;;;;;;6.93;1.20;;;13.80;99.90;;;;;;4913422;29;20147;-33
2023/06/02 07:49:26;;;;;;;8.50;2.45;;;13.70;99.90;;;;;;4898657;29;20521;-33
2023/06/02 07:51:52;;;;;;;7.60;1.58;;;13.70;99.90;;;;;;4899461;29;20045;-33
2023/06/02 07:54:17;;;;;;;8.23;2.20;;;13.80;99.90;;;;;;4903497;29;20509;-33
2023/06/02 07:56:43;;;;;;;11.02;2.33;;;13.90;99.90;;;;;;4915298;29;20068;-33
2023/06/02 07:59:12;;;;;;;10.40;2.20;;;14.00;99.90;;;;;;4904514;29;20087;-33
2023/06/02 08:01:40;;;;;;;12.95;2.20;;;14.10;99.90;;;;;;4909999;29;20047;-33
2023/06/02 08:04:06;;;;;;;13.45;1.63;;;14.10;99.90;;;;;;4901260;29;20116;-33
2023/06/02 08:06:31;;;;;;;9.23;1.55;;;14.10;99.90;;;;;;4913307;29;20043;-33
2023/06/02 08:08:57;;;;;;;8.63;1.70;;;14.10;99.90;;;;;;4909663;29;20052;-33
2023/06/02 08:11:23;;;;;;;11.75;1.95;;;14.10;99.90;;;;;;4911624;29;20062;-33
2023/06/02 08:13:49;;;;;;;9.20;1.67;;;14.20;99.90;;;;;;4906965;29;20056;-33
2023/06/02 08:16:15;;;;;;;7.57;1.60;;;14.20;99.90;;;;;;4912602;29;20087;-33
2023/06/02 08:18:41;;;;;;;11.68;2.13;;;14.20;99.90;;;;;;4906422;29;20084;-33
2023/06/02 08:21:07;;;;;;;10.57;1.50;;;14.30;99.90;;;;;;4912410;29;20053;-34
2023/06/02 08:23:32;;;;;;;9.57;2.05;;;14.30;99.90;;;;;;4909380;29;20049;-34
2023/06/02 08:25:59;;;;;;;10.13;2.85;;;14.30;99.90;;;;;;4910707;29;20055;-34
2023/06/02 08:28:27;;;;;;;12.25;2.03;;;14.40;99.90;;;;;;4912194;29;20056;-34
2023/06/02 08:30:58;;;;;;;10.48;2.10;;;14.40;99.90;;;;;;4909372;29;20076;-34
2023/06/02 08:33:24;;;;;;;9.65;1.70;;;14.50;99.90;;;;;;4909754;29;20055;-34
2023/06/02 08:35:51;;;;;;;11.98;2.22;;;14.60;99.90;;;;;;4905910;29;20052;-34
2023/06/02 08:38:20;;;;;;;9.73;2.05;;;14.70;99.90;;;;;;4911788;29;20052;-34
2023/06/02 08:40:47;;;;;;;14.73;2.03;;;14.70;99.90;;;;;;4909823;29;20059;-34
2023/06/02 08:43:13;;;;;;;7.97;1.65;;;14.80;99.90;;;;;;4910729;29;20408;-34
2023/06/02 08:45:48;;;;;;;11.10;1.98;;;14.80;99.90;;;;;;4908221;29;20044;-34
2023/06/02 08:48:18;;;;;;;9.40;2.00;;;14.90;99.90;;;;;;4906255;29;20530;-34
2023/06/02 08:50:50;;;;;;;14.90;3.30;;;14.90;99.90;;;;;;4900317;29;20384;-34
2023/06/02 08:53:16;;;;;;;10.23;2.33;;;15.00;99.90;;;;;;4905173;29;20506;-34
2023/06/02 08:55:43;;;;;;;11.05;1.65;;;15.20;99.90;;;;;;4904665;29;20056;-34
2023/06/02 08:58:09;;;;;;;10.25;1.90;;;15.40;99.90;;;;;;4910834;29;20056;-34
2023/06/02 09:00:35;;;;;;;9.35;2.05;;;15.50;99.90;;;;;;4901345;29;20060;-34
2023/06/02 09:03:01;;;;;;;9.93;1.75;;;15.70;99.90;;;;;;4908814;29;20062;-34
2023/06/02 09:05:28;;;;;;;8.77;2.15;;;15.90;99.90;;;;;;4906559;29;20138;-34
2023/06/02 09:08:14;;;;;;;7.50;2.45;;;16.10;99.90;;;;;;4906120;29;20060;-34
2023/06/02 09:10:41;;;;;;;10.23;2.65;;;16.40;99.90;;;;;;4910082;29;20052;-35
2023/06/02 09:13:08;;;;;;;10.27;2.10;;;16.50;99.90;;;;;;4885526;29;20048;-35
2023/06/02 09:15:37;;;;;;;12.90;2.20;;;16.50;99.90;;;;;;4911748;29;20044;-35
2023/06/02 09:18:11;;;;;;;7.55;1.85;;;16.70;99.90;;;;;;4909214;29;20067;-35
2023/06/02 09:20:38;;;;;;;12.43;2.00;;;17.00;99.90;;;;;;4908840;29;20528;-35
2023/06/02 09:23:04;;;;;;;10.23;1.75;;;17.10;99.90;;;;;;4913394;29;20079;-34
2023/06/02 09:25:32;;;;;;;11.63;2.28;;;17.20;99.90;;;;;;4907408;29;20507;-34
2023/06/02 09:27:59;;;;;;;16.48;2.72;;;17.30;99.90;;;;;;4902361;29;20068;-34
2023/06/02 09:30:26;;;;;;;9.68;2.63;;;17.30;99.90;;;;;;4905517;29;20206;-34
2023/06/02 09:32:56;;;;;;;13.55;2.08;;;17.30;99.90;;;;;;4902365;29;20063;-34
2023/06/02 09:35:44;;;;;;;8.57;1.85;;;17.40;99.90;;;;;;4908358;29;20502;-34
2023/06/02 09:38:12;;;;;;;14.10;2.28;;;17.40;99.90;;;;;;4907693;29;20060;-33
2023/06/02 09:40:40;;;;;;;11.52;2.45;;;17.50;99.90;;;;;;4906419;29;20052;-33
2023/06/02 09:43:10;;;;;;;11.23;2.00;;;17.60;99.90;;;;;;4909334;29;20137;-34
2023/06/02 09:45:48;;;;;;;12.35;2.30;;;17.70;99.90;;;;;;4904725;29;20201;-33
2023/06/02 09:48:22;;;;;;;7.90;2.33;;;17.70;99.90;;;;;;4910021;29;20048;-33
2023/06/02 09:50:48;;;;;;;12.32;2.17;;;17.70;99.90;;;;;;4908158;29;20100;-33
2023/06/02 09:53:15;;;;;;;11.02;1.90;;;17.80;99.90;;;;;;4895491;29;20094;-33
2023/06/02 09:55:41;;;;;;;8.50;2.05;;;17.90;99.90;;;;;;4901500;29;20138;-34
2023/06/02 09:58:08;;;;;;;10.98;2.50;;;18.30;99.90;;;;;;4905675;29;20150;-34
2023/06/02 10:00:37;;;;;;;11.13;2.17;;;18.60;99.90;;;;;;4904708;29;20044;-34
2023/06/02 10:03:07;;;;;;;8.80;1.90;;;18.70;99.90;;;;;;4903261;29;20043;-34
2023/06/02 10:05:33;;;;;;;12.43;3.25;;;18.60;99.90;;;;;;4904371;29;20052;-34
2023/06/02 10:08:30;;;;;;;8.85;1.80;;;18.30;99.90;;;;;;4898469;29;20513;-33
2023/06/02 10:11:12;;;;;;;14.23;2.40;;;18.20;99.90;;;;;;4902026;29;20040;-34
2023/06/02 10:14:17;;;;;;;6.63;2.00;;;18.20;99.90;;;;;;4907396;29;20045;-33
2023/06/02 10:17:15;;;;;;;8.02;2.33;;;18.10;99.90;;;;;;4902159;29;20076;-33
2023/06/02 10:20:25;;;;;;;7.82;2.00;;;18.10;99.90;;;;;;4884650;29;20418;-34
2023/06/02 10:23:24;;;;;;;8.30;1.65;;;18.30;99.90;;;;;;4893106;28;20089;-34
2023/06/02 10:26:06;;;;;;;8.07;1.85;;;18.40;99.90;;;;;;4883976;29;20061;-34
2023/06/02 10:28:33;;;;;;;9.90;2.00;;;18.60;99.90;;;;;;4910889;29;20056;-34
2023/06/02 10:31:10;;;;;;;7.50;1.70;;;18.80;99.90;;;;;;4906209;29;20086;-34
2023/06/02 10:33:49;;;;;;;11.68;1.55;;;18.70;99.90;;;;;;4908219;29;20055;-33
2023/06/02 10:36:18;;;;;;;7.82;1.40;;;18.60;99.90;;;;;;4904105;29;20052;-34
2023/06/02 10:38:45;;;;;;;9.43;1.55;;;18.80;99.90;;;;;;4909825;29;20529;-34
2023/06/02 10:41:12;;;;;;;9.23;1.30;;;19.00;99.90;;;;;;4912118;29;20051;-34
2023/06/02 10:43:38;;;;;;;9.02;1.48;;;19.40;99.90;;;;;;4905112;29;20159;-34
2023/06/02 10:46:16;;;;;;;6.68;1.30;;;19.80;99.90;;;;;;4908225;29;20063;-34
2023/06/02 10:48:42;;;;;;;13.48;1.52;;;20.30;99.90;;;;;;4904861;29;20059;-34
2023/06/02 10:51:09;;;;;;;6.95;1.48;;;20.70;99.90;;;;;;4909091;29;20052;-34
2023/06/02 10:54:07;;;;;;;8.40;1.25;;;20.70;99.90;;;;;;4905422;29;20510;-34
2023/06/02 10:56:35;;;;;;;3.03;0.85;;;20.70;99.90;;;;;;4906064;29;20060;-34
2023/06/02 10:59:04;;;;;;;9.20;1.50;;;20.80;99.90;;;;;;4911057;29;20056;-34
2023/06/02 11:01:53;;;;;;;4.43;1.23;;;21.00;99.90;;;;;;4907069;29;20517;-34
2023/06/02 11:04:25;;;;;;;8.57;1.00;;;21.40;99.90;;;;;;4911039;29;20070;-34
2023/06/02 11:07:23;;;;;;;4.50;1.05;;;21.70;99.90;;;;;;4910748;29;20052;-34
2023/06/02 11:09:58;;;;;;;8.00;1.20;;;21.70;99.90;;;;;;4912251;29;20086;-34
2023/06/02 11:12:59;;;;;;;6.53;1.10;;;21.60;99.90;;;;;;4912859;29;20079;-33
2023/06/02 11:15:25;;;;;;;9.57;1.33;;;21.30;99.90;;;;;;4800456;29;20058;-34
2023/06/02 11:17:51;;;;;;;2.85;0.80;;;21.00;99.90;;;;;;4890146;29;20051;-33
2023/06/02 11:20:18;;;;;;;3.13;0.77;;;20.80;99.90;;;;;;4910928;29;20053;-33
2023/06/02 11:22:44;;;;;;;5.00;0.90;;;20.70;99.90;;;;;;4905403;29;20048;-33
2023/06/02 11:25:13;;;;;;;3.65;0.80;;;20.80;99.90;;;;;;4910403;29;20059;-33
2023/06/02 11:27:46;;;;;;;5.88;0.90;;;21.10;99.90;;;;;;4913147;29;20127;-33
2023/06/02 11:30:17;;;;;;;4.55;0.80;;;21.40;99.90;;;;;;4911192;29;20103;-34
2023/06/02 11:32:46;;;;;;;3.97;0.77;;;21.40;99.90;;;;;;4912002;29;20119;-33
2023/06/02 11:35:12;;;;;;;4.38;0.80;;;21.40;99.90;;;;;;4910676;29;20044;-33
2023/06/02 11:37:40;;;;;;;3.83;0.80;;;21.30;99.90;;;;;;4913284;29;20059;-33
2023/06/02 11:40:09;;;;;;;6.90;0.90;;;21.20;99.90;;;;;;4914681;29;20048;-34
2023/06/02 11:42:37;;;;;;;4.50;0.95;;;21.10;99.90;;;;;;4915860;29;20055;-33
2023/06/02 11:45:04;;;;;;;4.35;1.08;;;21.10;99.90;;;;;;4912417;29;20060;-33
2023/06/02 11:47:30;;;;;;;4.50;1.15;;;21.10;99.90;;;;;;4912467;29;20048;-34
2023/06/02 11:49:56;;;;;;;5.03;1.10;;;21.20;99.90;;;;;;4911514;29;20062;-33
2023/06/02 11:52:22;;;;;;;2.33;0.70;;;21.60;99.90;;;;;;4906048;29;20060;-33
2023/06/02 11:54:52;;;;;;;4.47;1.00;;;21.80;99.90;;;;;;4913115;29;20122;-35
2023/06/02 11:57:32;;;;;;;6.55;1.00;;;22.10;99.90;;;;;;4909870;29;20415;-35
2023/06/02 12:00:26;;;;;;;3.47;0.63;;;22.50;99.90;;;;;;4907026;29;20076;-35
2023/06/02 12:03:07;;;;;;;6.97;1.00;;;22.70;99.90;;;;;;4902803;29;20520;-35
2023/06/02 12:05:34;;;;;;;6.80;0.80;;;22.60;99.90;;;;;;4909613;29;20151;-35
2023/06/02 12:08:14;;;;;;;3.80;0.93;;;22.70;99.90;;;;;;4912131;29;20052;-35
2023/06/02 12:10:41;;;;;;;2.15;0.60;;;23.00;99.90;;;;;;4905844;29;20049;-35
2023/06/02 12:13:07;;;;;;;4.90;0.93;;;23.30;99.90;;;;;;4907870;29;20513;-35
2023/06/02 12:15:33;;;;;;;2.75;0.80;;;23.50;99.90;;;;;;4910393;29;20070;-35
2023/06/02 12:18:06;;;;;;;3.38;0.88;;;23.70;99.90;;;;;;4909588;29;20052;-35
2023/06/02 12:20:42;;;;;;;2.60;0.88;;;23.90;99.90;;;;;;4913783;29;20058;-35
2023/06/02 12:23:10;;;;;;;5.25;0.73;;;24.10;99.90;;;;;;4908719;29;20143;-35
2023/06/02 12:25:38;;;;;;;4.18;0.60;;;24.20;99.90;;;;;;4899977;29;20123;-35
2023/06/02 12:28:09;;;;;;;3.95;0.65;;;24.10;99.90;;;;;;4902582;29;20048;-35
2023/06/02 12:30:34;;;;;;;2.90;1.08;;;23.80;99.90;;;;;;4910803;29;20414;-34
2023/06/02 12:33:11;;;;;;;4.63;0.60;;;23.40;99.90;;;;;;4911786;29;20060;-35
2023/06/02 12:35:38;;;;;;;4.72;0.85;;;23.40;99.90;;;;;;4900742;29;20127;-35
2023/06/02 12:38:08;;;;;;;2.78;1.05;;;23.30;99.90;;;;;;4913983;29;20063;-35
2023/06/02 12:40:36;;;;;;;1.95;0.75;;;23.20;99.90;;;;;;4909307;29;20112;-35
2023/06/02 12:43:03;;;;;;;1.88;0.75;;;23.20;99.90;;;;;;4911293;29;20083;-35
2023/06/02 12:45:29;;;;;;;2.08;0.80;;;23.20;99.90;;;;;;4909797;29;20585;-35
2023/06/02 12:47:55;;;;;;;3.22;0.80;;;23.50;99.90;;;;;;4905270;29;20056;-35
2023/06/02 12:50:21;;;;;;;3.35;0.60;;;23.90;99.90;;;;;;4904703;29;20388;-35
2023/06/02 12:52:48;;;;;;;3.95;0.80;;;24.30;99.90;;;;;;4908078;29;20747;-35